createdAt,value
2022-09-01T00:00:06.687Z,3.80
2022-09-01T00:02:45.738Z,3.45
2022-09-01T00:05:22.610Z,3.50
2022-09-01T00:08:04.272Z,3.60
2022-09-01T00:10:36.885Z,3.35
2022-09-01T00:13:09.242Z,3.05
2022-09-01T00:15:42.214Z,3.08
2022-09-01T00:18:14.941Z,3.17
2022-09-01T00:20:53.317Z,2.92
2022-09-01T00:23:24.659Z,3.25
2022-09-01T00:25:55.984Z,2.90
2022-09-01T00:28:30.366Z,2.72
2022-09-01T00:31:04.703Z,2.70
2022-09-01T00:33:39.641Z,2.80
2022-09-01T00:36:13.173Z,2.92
2022-09-01T00:38:44.834Z,2.90
2022-09-01T00:41:16.740Z,3.13
2022-09-01T00:43:52.616Z,3.17
2022-09-01T00:46:35.412Z,3.22
2022-09-01T00:49:14.530Z,2.95
2022-09-01T01:02:37.757Z,2.85
2022-09-01T01:05:11.078Z,3.28
2022-09-01T01:07:48.435Z,6.25
2022-09-01T01:10:23.852Z,2.92
2022-09-01T01:16:11.427Z,3.10
2022-09-01T01:18:48.573Z,3.00
2022-09-01T01:21:45.505Z,3.03
2022-09-01T01:24:30.794Z,3.17
2022-09-01T01:27:04.329Z,4.57
2022-09-01T01:29:40.936Z,3.40
2022-09-01T01:32:28.652Z,3.37
2022-09-01T01:38:17.451Z,2.83
2022-09-01T01:41:18.378Z,2.50
2022-09-01T01:43:54.184Z,2.60
2022-09-01T01:49:25.733Z,2.70
2022-09-01T01:52:00.684Z,2.17
2022-09-01T01:54:37.553Z,2.43
2022-09-01T01:57:09.871Z,2.23
2022-09-01T01:59:50.883Z,2.03
2022-09-01T02:02:29.922Z,2.10
2022-09-01T02:07:37.041Z,2.17
2022-09-01T02:10:08.825Z,1.97
2022-09-01T02:12:49.093Z,1.83
2022-09-01T02:32:49.072Z,1.93
2022-09-01T02:41:40.849Z,2.03
2022-09-01T02:47:11.749Z,2.03
2022-09-01T02:50:18.109Z,1.80
2022-09-01T02:53:09.083Z,1.53
2022-09-01T02:55:40.863Z,1.80
2022-09-01T02:58:18.082Z,1.67
2022-09-01T03:01:00.181Z,1.73
2022-09-01T03:03:36.298Z,2.10
2022-09-01T03:06:13.490Z,1.73
2022-09-01T03:08:55.737Z,1.63
2022-09-01T03:11:37.052Z,1.90
2022-09-01T03:17:22.062Z,2.07
2022-09-01T03:20:06.607Z,1.83
2022-09-01T03:22:39.922Z,1.97
2022-09-01T03:25:27.032Z,2.00
2022-09-01T03:28:03.375Z,1.90
2022-09-01T03:30:36.097Z,1.67
2022-09-01T03:33:07.975Z,1.80
2022-09-01T03:35:39.698Z,2.17
2022-09-01T03:38:11.230Z,1.70
2022-09-01T03:40:46.702Z,2.10
2022-09-01T03:43:19.528Z,1.90
2022-09-01T03:45:50.907Z,2.10
2022-09-01T03:48:21.992Z,2.80
2022-09-01T03:50:53.258Z,2.00
2022-09-01T03:53:28.350Z,1.73
2022-09-01T03:56:03.139Z,2.13
2022-09-01T03:58:34.420Z,1.83
2022-09-01T04:01:05.905Z,1.70
2022-09-01T04:03:44.178Z,2.13
2022-09-01T04:06:15.797Z,2.10
2022-09-01T04:08:47.911Z,2.13
2022-09-01T04:11:25.156Z,2.30
2022-09-01T04:13:56.569Z,2.10
2022-09-01T04:16:46.134Z,2.50
2022-09-01T04:19:21.196Z,2.07
2022-09-01T04:21:54.027Z,2.40
2022-09-01T04:24:29.744Z,2.10
2022-09-01T04:27:04.883Z,2.20
2022-09-01T04:29:37.444Z,2.23
2022-09-01T04:32:12.243Z,2.30
2022-09-01T04:34:43.283Z,2.60
2022-09-01T04:37:18.634Z,2.63
2022-09-01T04:39:56.639Z,2.80
2022-09-01T04:42:33.595Z,2.30
2022-09-01T04:45:11.970Z,2.47
2022-09-01T04:47:44.083Z,2.50
2022-09-01T04:50:18.820Z,2.50
2022-09-01T04:55:50.318Z,2.63
2022-09-01T04:58:23.661Z,2.20
2022-09-01T05:00:56.925Z,2.47
2022-09-01T05:03:28.295Z,2.33
2022-09-01T05:06:02.199Z,2.97
2022-09-01T05:08:36.450Z,2.70
2022-09-01T05:11:09.115Z,2.60
2022-09-01T05:13:42.249Z,2.33
2022-09-01T05:16:17.286Z,2.30
2022-09-01T05:18:51.905Z,1.97
2022-09-01T05:21:27.577Z,2.53
2022-09-01T05:23:58.897Z,2.20
2022-09-01T05:26:32.657Z,2.40
2022-09-01T05:29:14.611Z,2.03
2022-09-01T05:31:50.453Z,2.20
2022-09-01T05:34:27.389Z,2.43
2022-09-01T05:37:00.838Z,2.40
2022-09-01T05:39:33.342Z,2.10
2022-09-01T05:42:06.982Z,2.37
2022-09-01T05:44:41.171Z,2.27
2022-09-01T05:47:14.866Z,2.57
2022-09-01T05:49:54.625Z,2.23
2022-09-01T05:52:27.291Z,2.30
2022-09-01T05:55:01.103Z,2.80
2022-09-01T05:57:36.448Z,2.37
2022-09-01T06:00:14.980Z,2.83
2022-09-01T06:02:47.094Z,2.33
2022-09-01T06:05:18.455Z,2.60
2022-09-01T06:07:50.139Z,2.70
2022-09-01T06:10:21.892Z,2.47
2022-09-01T06:12:54.559Z,2.80
2022-09-01T06:15:30.548Z,2.70
2022-09-01T06:18:02.624Z,3.03
2022-09-01T06:20:34.135Z,2.70
2022-09-01T06:23:05.132Z,2.90
2022-09-01T06:25:39.234Z,2.60
2022-09-01T06:28:13.843Z,2.90
2022-09-01T06:30:49.036Z,2.50
2022-09-01T06:33:24.093Z,2.83
2022-09-01T06:35:56.894Z,2.77
2022-09-01T06:38:28.377Z,3.03
2022-09-01T06:41:06.739Z,2.77
2022-09-01T06:43:38.112Z,3.20
2022-09-01T06:46:13.101Z,3.03
2022-09-01T06:48:47.200Z,3.40
2022-09-01T06:51:21.369Z,3.33
2022-09-01T06:53:57.875Z,3.03
2022-09-01T06:56:31.944Z,3.00
2022-09-01T06:59:07.501Z,2.70
2022-09-01T07:01:40.982Z,2.80
2022-09-01T07:04:13.435Z,2.50
2022-09-01T07:07:01.849Z,2.43
2022-09-01T07:09:47.619Z,2.87
2022-09-01T07:12:25.723Z,2.53
2022-09-01T07:17:54.069Z,2.60
2022-09-01T07:20:28.608Z,2.53
2022-09-01T07:23:05.798Z,2.40
2022-09-01T07:38:47.442Z,2.40
2022-09-01T07:42:56.765Z,2.27
2022-09-01T07:45:36.295Z,2.83
2022-09-01T07:48:10.591Z,2.47
2022-09-01T07:53:40.313Z,2.37
2022-09-01T07:56:14.338Z,2.67
2022-09-01T07:58:45.708Z,2.40
2022-09-01T08:01:20.353Z,2.90
2022-09-01T08:03:53.214Z,2.50
2022-09-01T08:06:27.921Z,2.60
2022-09-01T08:09:01.183Z,2.20
2022-09-01T08:12:03.914Z,2.50
2022-09-01T08:14:25.442Z,2.80
2022-09-01T08:16:56.965Z,2.93
2022-09-01T08:19:28.444Z,2.53
2022-09-01T08:22:03.974Z,2.40
2022-09-01T08:24:35.186Z,2.50
2022-09-01T08:27:06.428Z,2.67
2022-09-01T08:29:37.570Z,2.40
2022-09-01T08:32:09.096Z,2.53
2022-09-01T08:34:40.335Z,2.63
2022-09-01T08:37:13.517Z,2.37
2022-09-01T08:39:45.265Z,2.60
2022-09-01T08:42:24.062Z,2.73
2022-09-01T08:45:02.156Z,2.17
2022-09-01T08:47:49.166Z,2.90
2022-09-01T08:50:26.591Z,2.60
2022-09-01T08:53:13.805Z,2.60
2022-09-01T08:55:49.476Z,2.77
2022-09-01T08:58:22.416Z,2.33
2022-09-01T09:00:58.834Z,2.50
2022-09-01T09:03:40.955Z,2.93
2022-09-01T09:06:20.173Z,2.40
2022-09-01T09:09:05.142Z,2.40
2022-09-01T09:12:04.366Z,2.40
2022-09-01T09:14:55.891Z,2.37
2022-09-01T09:17:33.791Z,2.60
2022-09-01T09:20:08.885Z,2.70
2022-09-01T09:22:40.862Z,2.83
2022-09-01T09:25:19.195Z,2.60
2022-09-01T09:28:00.445Z,2.50
2022-09-01T09:30:33.587Z,2.50
2022-09-01T09:35:58.910Z,2.80
2022-09-01T09:38:33.437Z,2.73
2022-09-01T09:41:17.212Z,2.80
2022-09-01T09:43:52.821Z,2.50
2022-09-01T09:46:37.580Z,2.50
2022-09-01T09:49:21.550Z,2.50
2022-09-01T09:52:19.176Z,2.37
2022-09-01T09:55:07.273Z,2.57
2022-09-01T09:57:43.409Z,2.50
2022-09-01T10:00:25.640Z,2.00
2022-09-01T10:03:00.411Z,2.20
2022-09-01T10:05:39.593Z,2.10
2022-09-01T10:08:13.392Z,2.60
2022-09-01T10:10:48.777Z,2.13
2022-09-01T10:13:33.115Z,2.17
2022-09-01T10:16:07.935Z,2.33
2022-09-01T10:18:43.781Z,2.00
2022-09-01T10:21:19.284Z,2.13
2022-09-01T10:23:50.895Z,1.53
2022-09-01T10:26:26.555Z,1.90
2022-09-01T10:29:07.682Z,2.00
2022-09-01T10:31:44.994Z,2.50
2022-09-01T10:34:19.924Z,2.57
2022-09-01T10:36:55.769Z,2.40
2022-09-01T10:39:31.121Z,2.83
2022-09-01T10:42:09.147Z,2.80
2022-09-01T10:44:58.442Z,3.30
2022-09-01T10:47:32.322Z,2.73
2022-09-01T10:50:23.696Z,3.17
2022-09-01T10:53:33.966Z,3.30
2022-09-01T10:56:23.396Z,2.73
2022-09-01T10:59:31.256Z,3.10
2022-09-01T11:02:24.870Z,2.33
2022-09-01T11:05:22.396Z,2.60
2022-09-01T11:08:01.798Z,2.70
2022-09-01T11:10:57.046Z,2.30
2022-09-01T11:13:49.802Z,2.30
2022-09-01T11:16:47.038Z,2.20
2022-09-01T11:19:44.579Z,2.30
2022-09-01T11:22:29.793Z,2.43
2022-09-01T11:25:39.533Z,2.13
2022-09-01T11:28:44.453Z,2.37
2022-09-01T11:31:28.397Z,2.30
2022-09-01T11:34:19.323Z,1.97
2022-09-01T11:37:16.094Z,1.80
2022-09-01T11:39:52.237Z,2.17
2022-09-01T11:42:29.708Z,2.13
2022-09-01T11:45:05.341Z,2.43
2022-09-01T11:47:42.467Z,2.30
2022-09-01T11:50:24.078Z,2.30
2022-09-01T11:53:05.218Z,2.60
2022-09-01T11:55:38.421Z,3.60
2022-09-01T11:58:17.639Z,2.90
2022-09-01T12:00:49.598Z,4.50
2022-09-01T12:03:25.713Z,4.60
2022-09-01T12:06:00.493Z,4.10
2022-09-01T12:08:38.446Z,4.50
2022-09-01T12:11:12.767Z,3.90
2022-09-01T12:13:57.336Z,4.07
2022-09-01T12:16:29.507Z,4.50
2022-09-01T12:19:02.091Z,4.20
2022-09-01T12:21:35.495Z,4.47
2022-09-01T12:24:30.426Z,3.70
2022-09-01T12:27:02.030Z,4.27
2022-09-01T12:29:34.720Z,4.07
2022-09-01T12:32:06.923Z,4.40
2022-09-01T12:34:44.299Z,4.50
2022-09-01T12:37:25.078Z,3.77
2022-09-01T12:39:59.670Z,3.87
2022-09-01T12:42:41.471Z,3.97
2022-09-01T12:45:16.428Z,4.00
2022-09-01T12:47:52.569Z,4.87
2022-09-01T12:50:56.142Z,4.47
2022-09-01T12:53:36.562Z,4.60
2022-09-01T12:56:22.745Z,4.87
2022-09-01T12:58:55.718Z,5.00
2022-09-01T13:01:33.933Z,4.63
2022-09-01T13:04:29.472Z,5.30
2022-09-01T13:07:05.536Z,5.13
2022-09-01T13:09:37.391Z,4.57
2022-09-01T13:12:21.709Z,4.47
2022-09-01T13:14:54.104Z,4.60
2022-09-01T13:17:25.077Z,4.10
2022-09-01T13:19:56.082Z,4.80
2022-09-01T13:22:27.906Z,5.10
2022-09-01T13:24:59.166Z,4.10
2022-09-01T13:27:32.977Z,4.67
2022-09-01T13:30:04.546Z,4.30
2022-09-01T13:32:35.959Z,4.23
2022-09-01T13:35:08.206Z,5.00
2022-09-01T13:37:39.529Z,5.07
2022-09-01T13:40:16.930Z,4.70
2022-09-01T13:42:52.592Z,5.30
2022-09-01T13:45:25.597Z,4.83
2022-09-01T13:53:41.485Z,4.43
2022-09-01T13:56:12.069Z,4.60
2022-09-01T13:58:46.332Z,4.17
2022-09-01T14:01:19.542Z,4.17
2022-09-01T14:03:52.178Z,5.50
2022-09-01T14:06:24.177Z,5.00
2022-09-01T14:08:55.374Z,5.00
2022-09-01T14:11:26.485Z,4.70
2022-09-01T14:13:59.679Z,4.73
2022-09-01T14:16:31.028Z,4.93
2022-09-01T14:19:03.126Z,5.27
2022-09-01T14:21:33.737Z,3.87
2022-09-01T14:26:36.649Z,4.93
2022-09-01T14:29:09.513Z,4.43
2022-09-01T14:31:42.278Z,4.80
2022-09-01T14:34:14.143Z,4.43
2022-09-01T14:36:46.107Z,6.27
2022-09-01T14:39:17.121Z,5.83
2022-09-01T14:42:02.623Z,6.90
2022-09-01T14:47:59.842Z,6.00
2022-09-01T14:50:35.874Z,5.90
2022-09-01T14:58:48.256Z,5.00
2022-09-01T15:01:34.174Z,5.90
2022-09-01T15:04:10.602Z,5.67
2022-09-01T15:06:43.897Z,5.40
2022-09-01T15:09:19.113Z,4.37
2022-09-01T15:11:59.312Z,4.83
2022-09-01T15:14:33.751Z,5.80
2022-09-01T15:17:25.367Z,6.07
2022-09-01T15:22:55.674Z,5.80
2022-09-01T15:25:27.691Z,5.60
2022-09-01T15:27:59.528Z,5.70
2022-09-01T15:30:30.764Z,6.23
2022-09-01T15:33:05.143Z,6.37
2022-09-01T15:35:38.829Z,6.00
2022-09-01T15:38:09.859Z,5.97
2022-09-01T15:40:44.315Z,5.57
2022-09-01T15:43:16.574Z,5.73
2022-09-01T15:45:52.802Z,5.87
2022-09-01T15:48:27.775Z,6.37
2022-09-01T15:51:13.904Z,6.20
2022-09-01T15:53:44.529Z,5.50
2022-09-01T15:56:15.392Z,7.00
2022-09-01T15:59:01.095Z,6.93
2022-09-01T16:01:35.041Z,7.40
2022-09-01T16:04:48.499Z,6.47
2022-09-01T16:07:34.029Z,6.07
2022-09-01T16:10:05.643Z,6.73
2022-09-01T16:12:37.692Z,7.00
2022-09-01T16:15:10.084Z,6.83
2022-09-01T16:17:54.849Z,7.27
2022-09-01T16:20:28.067Z,7.50
2022-09-01T16:23:12.527Z,8.27
2022-09-01T16:25:43.791Z,7.20
2022-09-01T16:28:29.157Z,7.27
2022-09-01T16:31:07.056Z,7.90
2022-09-01T16:33:38.971Z,7.67
2022-09-01T16:36:23.327Z,8.57
2022-09-01T16:39:02.228Z,8.17
2022-09-01T16:41:45.426Z,8.20
2022-09-01T16:44:38.654Z,7.63
2022-09-01T16:47:28.149Z,6.27
2022-09-01T16:50:06.712Z,8.03
2022-09-01T16:52:47.069Z,9.00
2022-09-01T16:55:28.220Z,8.77
2022-09-01T16:58:07.062Z,9.60
2022-09-01T17:00:49.352Z,8.70
2022-09-01T17:03:42.634Z,8.70
2022-09-01T17:06:20.691Z,9.00
2022-09-01T17:08:56.403Z,8.70
2022-09-01T17:11:38.260Z,8.30
2022-09-01T17:14:13.850Z,8.00
2022-09-01T17:16:47.381Z,8.27
2022-09-01T17:19:21.358Z,7.77
2022-09-01T17:21:57.693Z,8.73
2022-09-01T17:24:39.582Z,8.57
2022-09-01T17:27:22.649Z,9.47
2022-09-01T17:29:56.776Z,8.50
2022-09-01T17:32:57.291Z,8.03
2022-09-01T17:35:34.874Z,8.70
2022-09-01T17:38:19.664Z,7.30
2022-09-01T17:41:06.757Z,7.77
2022-09-01T17:43:51.177Z,8.13
2022-09-01T17:46:32.743Z,8.17
2022-09-01T17:49:12.965Z,7.90
2022-09-01T17:51:49.330Z,7.67
2022-09-01T17:54:28.852Z,8.47
2022-09-01T17:57:13.306Z,7.73
2022-09-01T17:59:50.117Z,7.70
2022-09-01T18:02:47.807Z,7.13
2022-09-01T18:05:24.697Z,7.87
2022-09-01T18:08:30.446Z,7.60
2022-09-01T18:11:09.149Z,8.27
2022-09-01T18:13:53.821Z,8.13
2022-09-01T18:16:29.984Z,9.20
2022-09-01T18:19:06.893Z,7.97
2022-09-01T18:21:40.903Z,9.20
2022-09-01T18:24:19.540Z,9.47
2022-09-01T18:26:53.151Z,8.87
2022-09-01T18:29:29.224Z,8.60
2022-09-01T18:32:24.470Z,8.67
2022-09-01T18:35:12.637Z,9.43
2022-09-01T18:37:59.577Z,9.37
2022-09-01T18:40:35.089Z,9.77
2022-09-01T18:43:18.040Z,8.47
2022-09-01T18:45:56.321Z,8.20
2022-09-01T18:48:45.012Z,8.47
2022-09-01T18:51:23.773Z,7.50
2022-09-01T18:54:00.017Z,7.00
2022-09-01T18:56:38.957Z,8.43
2022-09-01T18:59:26.310Z,7.80
2022-09-01T19:02:19.483Z,8.20
2022-09-01T19:04:57.211Z,8.10
2022-09-01T19:07:37.826Z,7.63
2022-09-01T19:10:18.668Z,7.70
2022-09-01T19:12:57.045Z,7.77
2022-09-01T19:15:36.636Z,7.77
2022-09-01T19:18:21.634Z,8.90
2022-09-01T19:20:59.255Z,8.43
2022-09-01T19:23:42.456Z,8.20
2022-09-01T19:26:22.200Z,8.50
2022-09-01T19:28:56.096Z,9.60
2022-09-01T19:31:30.531Z,8.87
2022-09-01T19:34:04.085Z,8.93
2022-09-01T19:36:43.060Z,9.20
2022-09-01T19:39:16.981Z,9.10
2022-09-01T19:41:54.907Z,9.17
2022-09-01T19:44:35.954Z,9.23
2022-09-01T19:47:12.954Z,9.63
2022-09-01T19:49:51.985Z,9.07
2022-09-01T19:52:34.749Z,8.90
2022-09-01T19:55:15.704Z,9.17
2022-09-01T19:57:54.506Z,9.83
2022-09-01T20:00:33.401Z,10.53
2022-09-01T20:03:14.050Z,8.80
2022-09-01T20:05:50.206Z,10.50
2022-09-01T20:08:44.766Z,9.57
2022-09-01T20:14:37.366Z,10.30
2022-09-01T20:17:10.504Z,9.20
2022-09-01T20:19:48.245Z,9.60
2022-09-01T20:22:33.151Z,8.63
2022-09-01T20:25:17.293Z,9.67
2022-09-01T20:27:56.509Z,8.93
2022-09-01T20:30:32.190Z,10.20
2022-09-01T20:33:09.439Z,10.60
2022-09-01T20:35:45.302Z,10.00
2022-09-01T20:38:38.591Z,10.33
2022-09-01T20:41:21.889Z,9.53
2022-09-01T20:43:56.737Z,9.83
2022-09-01T20:46:29.021Z,10.43
2022-09-01T20:49:00.276Z,9.40
2022-09-01T20:51:43.267Z,9.97
2022-09-01T20:54:27.977Z,8.90
2022-09-01T20:57:10.414Z,10.33
2022-09-01T20:59:48.227Z,8.40
2022-09-01T21:02:43.303Z,10.20
2022-09-01T21:05:24.771Z,9.33
2022-09-01T21:08:03.855Z,9.50
2022-09-01T21:10:41.544Z,9.43
2022-09-01T21:13:25.111Z,8.90
2022-09-01T21:16:01.351Z,8.90
2022-09-01T21:18:48.726Z,8.70
2022-09-01T21:21:37.706Z,8.60
2022-09-01T21:24:09.579Z,9.27
2022-09-01T21:26:52.084Z,9.13
2022-09-01T21:29:33.111Z,8.27
2022-09-01T21:32:04.366Z,7.63
2022-09-01T21:34:35.862Z,7.00
2022-09-01T21:37:07.330Z,7.73
2022-09-01T21:39:38.298Z,7.37
2022-09-01T21:42:11.479Z,7.17
2022-09-01T21:44:45.461Z,6.33
2022-09-01T21:47:17.297Z,6.80
2022-09-01T21:52:50.632Z,6.60
2022-09-01T21:58:19.487Z,7.43
2022-09-01T22:00:53.112Z,6.60
2022-09-01T22:03:24.425Z,6.90
2022-09-01T22:05:55.298Z,6.07
2022-09-01T22:08:26.469Z,6.80
2022-09-01T22:10:59.396Z,6.53
2022-09-01T22:13:29.977Z,7.27
2022-09-01T22:16:03.771Z,6.47
2022-09-01T22:18:35.193Z,6.47
2022-09-01T22:21:07.082Z,6.40
2022-09-01T22:23:38.733Z,5.83
2022-09-01T22:26:14.983Z,6.50
2022-09-01T22:28:47.092Z,5.50
2022-09-01T22:31:22.463Z,5.50
2022-09-01T22:33:55.083Z,5.23
2022-09-01T22:36:27.339Z,5.20
2022-09-01T22:38:59.268Z,6.77
2022-09-01T22:41:32.197Z,6.60
2022-09-01T22:44:04.660Z,6.03
2022-09-01T22:46:38.963Z,6.80
2022-09-01T22:49:10.361Z,6.67
2022-09-01T22:51:42.135Z,6.77
2022-09-01T22:54:14.672Z,6.90
2022-09-01T22:56:46.258Z,7.43
2022-09-01T22:59:19.055Z,6.37
2022-09-01T23:01:52.697Z,5.93
2022-09-01T23:04:24.550Z,5.93
2022-09-01T23:06:56.608Z,5.97
2022-09-01T23:09:28.601Z,5.17
2022-09-01T23:12:00.366Z,5.17
2022-09-01T23:14:31.704Z,5.60
2022-09-01T23:17:06.075Z,5.93
2022-09-01T23:19:36.996Z,5.80
2022-09-01T23:22:11.883Z,43.83
2022-09-01T23:24:43.554Z,5.60
2022-09-01T23:27:14.642Z,5.10
2022-09-01T23:29:45.895Z,5.27
2022-09-01T23:32:19.566Z,7.20
2022-09-01T23:34:50.852Z,5.40
2022-09-01T23:37:22.244Z,5.90
2022-09-01T23:39:54.172Z,5.60
2022-09-01T23:42:25.693Z,6.23
2022-09-01T23:44:57.054Z,5.80
2022-09-01T23:47:32.251Z,5.63
2022-09-01T23:50:03.847Z,6.20
2022-09-01T23:52:35.895Z,6.47
2022-09-01T23:55:07.983Z,5.63
2022-09-01T23:57:40.331Z,5.03
